Strong, Maine
Current Conditions -  °F | °C
As of 2:15 PM on Saturday 25 Oct 2014 (Local Time) from KWVL Reporting Station
Clear Clear  
Wind Chill: 63°   Ceiling: Unl
Heat Index: 63°   Visibility: 10mi
Dew Point: 37°   Wind: 3mph
Humidity: 39%   Direction: 280°W
Pressure: 29.55"   Gusts: NA
Location:  44.81°N, 70.22°W
Report Text: KWVL 251815Z 28003KT 10SM CLR 17/03 A2955 RMK AO1
Loading
Personal Weather Stations






























Interactive Weather Map
Tropical Storm Tracking
New forecast layout! Learn more

10-Day Weather Forecast

Advertisements
Track Severe Weather on mobile